Stations météo

réclame
Mon MeteoGroup
Idre, Suède (2307): Température de l'air & dewpoint: 12.08.2018 02:00:00 - 18.08.2018 02:00:00 (CEST)Idre, Suède (2307): Vitesse du vent & gusts: 12.08.2018 02:00:00 - 18.08.2018 02:00:00 (CEST)Idre, Suède (2307): Direction du vent: 12.08.2018 02:00:00 - 18.08.2018 02:00:00 (CEST)
Date & Time tt [°C] td [°C] ff [km/h] ff [knt] fx [km/h] fx [knt] dd
18.08.2018 02:00:00 7,5 5,5 23 12 31 17 SW
18.08.2018 01:00:00 7,5 5,3 14 7 45 24 WSW
18.08.2018 00:00:00 8,2 5,5 17 9 45 24 WSW
17.08.2018 23:00:00 8,6 5,5 18 10 42 23 SW
17.08.2018 22:00:00 8,9 5,8 19 10 38 21 SW
17.08.2018 21:00:00 9,4 6,1 27 14 38 21 SW
17.08.2018 20:00:00 10,2 5,6 20 11 34 18 SW
17.08.2018 19:00:00 9,3 4,7 16 9 62 33 SSW
17.08.2018 18:00:00 9,7 4,9 22 12 62 33 W
17.08.2018 17:00:00 13,6 4,7 33 18 53 29 SSW
17.08.2018 16:00:00 12,8 5,5 30 16 51 27 SSW
17.08.2018 15:00:00 13,4 5,1 35 19 51 27 SSW
17.08.2018 14:00:00 12,1 4,8 35 19 53 28 SSW
17.08.2018 13:00:00 11,9 5,3 33 18 53 28 SSW
17.08.2018 12:00:00 12,1 5,3 30 16 49 27 SW
17.08.2018 11:00:00 12,1 7,0 28 15 49 27 SSW
17.08.2018 10:00:00 11,2 7,7 26 14 44 24 SSW
17.08.2018 09:00:00 10,4 8,3 16 9 39 21 SSW
17.08.2018 08:00:00 9,9 8,3 24 13 39 21 SSW
17.08.2018 07:00:00 9,6 8,2 21 11 39 21 S
17.08.2018 06:00:00 9,5 7,6 28 15 39 21 SSW
17.08.2018 05:00:00 9,9 7,8 23 12 37 20 SSW
17.08.2018 04:00:00 9,7 8,8 21 11 69 37 SW
17.08.2018 03:00:00 10,1 9,3 20 11 69 37 WSW
17.08.2018 02:00:00 12,4 11,5 42 23 61 33 S
17.08.2018 01:00:00 12,4 11,3 40 22 60 33 S
17.08.2018 00:00:00 12,2 11,3 36 19 57 31 S
16.08.2018 23:00:00 12,1 11,2 36 19 57 31 S
16.08.2018 22:00:00 12,5 10,9 39 21 58 31 S
16.08.2018 21:00:00 12,7 10,6 39 21 58 31 S
16.08.2018 20:00:00 12,5 10,9 38 21 61 33 S
16.08.2018 19:00:00 12,8 10,9 35 19 61 33 S
16.08.2018 18:00:00 13,2 11,1 34 18 57 31 S
16.08.2018 17:00:00 13,5 11,2 36 20 68 37 SSW
16.08.2018 16:00:00 13,3 11,5 37 20 69 37 S
16.08.2018 15:00:00 13,4 11,3 45 24 69 37 SSW
16.08.2018 14:00:00 13,5 11,6 34 19 60 33 S
16.08.2018 13:00:00 13,1 11,0 39 21 60 33 S
16.08.2018 12:00:00 12,7 10,8 37 20 58 31 SSW
16.08.2018 11:00:00 12,0 10,2 22 12 - - S
16.08.2018 10:00:00 11,8 10,4 22 12 37 20 SSE
16.08.2018 09:00:00 11,3 10,5 22 12 37 20 S
16.08.2018 08:00:00 10,8 10,0 21 12 36 19 SSE
16.08.2018 07:00:00 10,6 9,8 26 14 41 22 SSE
16.08.2018 06:00:00 10,6 9,7 29 15 41 22 S
16.08.2018 05:00:00 10,7 9,5 24 13 36 19 S
16.08.2018 04:00:00 10,5 9,3 24 13 32 17 S
16.08.2018 03:00:00 10,6 8,5 22 12 35 19 S
16.08.2018 02:00:00 10,6 8,2 23 13 35 19 S
16.08.2018 01:00:00 10,8 8,0 20 11 32 17 SSE
16.08.2018 00:00:00 11,0 7,7 22 12 31 17 S
15.08.2018 23:00:00 11,1 7,2 18 10 35 19 SSW
15.08.2018 22:00:00 11,2 6,9 21 11 35 19 SW
15.08.2018 21:00:00 11,6 7,1 22 12 37 20 SSW
15.08.2018 20:00:00 12,1 6,4 22 12 37 20 SSW
15.08.2018 19:00:00 12,9 6,9 28 15 36 20 SSW
15.08.2018 18:00:00 13,8 6,6 23 13 37 20 SSW
15.08.2018 17:00:00 13,9 5,5 22 12 45 24 SSW
15.08.2018 16:00:00 14,3 5,4 23 13 45 24 SW
15.08.2018 15:00:00 15,0 5,8 24 13 38 21 SSW
15.08.2018 14:00:00 15,6 4,6 27 14 38 21 SSW
15.08.2018 13:00:00 15,1 4,5 23 12 35 19 SSW
15.08.2018 12:00:00 15,4 4,4 19 10 28 15 SSW
15.08.2018 11:00:00 13,9 5,5 16 9 28 15 S
15.08.2018 10:00:00 11,9 4,6 14 8 21 11 S
15.08.2018 09:00:00 10,8 4,9 9 5 18 10 S
15.08.2018 08:00:00 10,1 4,0 12 7 19 10 S
15.08.2018 07:00:00 9,1 4,1 13 7 19 10 SSW
15.08.2018 06:00:00 8,4 4,0 14 8 16 9 SSW
15.08.2018 05:00:00 8,4 4,0 13 7 16 9 SSW
15.08.2018 04:00:00 7,9 3,7 12 6 18 10 S
15.08.2018 03:00:00 9,6 4,2 10 5 21 12 SW
15.08.2018 02:00:00 9,3 4,5 10 6 24 13 SW
15.08.2018 01:00:00 9,7 3,9 14 8 25 13 WSW
15.08.2018 00:00:00 10,3 3,1 10 6 25 13 SSW
14.08.2018 23:00:00 10,8 2,4 13 7 22 12 SSW
14.08.2018 22:00:00 11,1 2,7 15 8 21 11 S
14.08.2018 21:00:00 11,8 3,3 14 7 20 11 S
14.08.2018 20:00:00 13,1 2,9 14 8 20 11 S
14.08.2018 19:00:00 14,0 3,5 12 7 21 11 SSE
14.08.2018 18:00:00 14,1 2,3 13 7 25 13 SSW
14.08.2018 17:00:00 14,1 2,0 12 6 28 15 WSW
14.08.2018 16:00:00 15,0 1,9 15 8 28 15 SW
14.08.2018 15:00:00 13,6 2,5 13 7 24 13 SSW
14.08.2018 14:00:00 13,5 2,1 16 9 24 13 S
14.08.2018 13:00:00 13,5 4,4 11 6 24 13 S
14.08.2018 12:00:00 13,5 4,6 10 6 17 9 SSE
14.08.2018 11:00:00 11,9 3,6 9 5 21 11 SSE
14.08.2018 10:00:00 9,4 3,8 13 7 25 13 SE
14.08.2018 09:00:00 7,9 3,6 15 8 25 13 SE
14.08.2018 08:00:00 6,1 2,9 14 7 22 12 ESE
14.08.2018 07:00:00 5,8 2,6 17 9 23 12 ESE
14.08.2018 06:00:00 6,1 2,6 19 10 23 12 ESE
14.08.2018 05:00:00 6,6 2,3 18 10 22 12 ESE
14.08.2018 04:00:00 7,0 2,3 15 8 17 9 ESE
14.08.2018 03:00:00 7,5 2,0 11 6 14 7 E
14.08.2018 02:00:00 8,2 1,4 2 1 5 3 NE
14.08.2018 01:00:00 8,1 1,3 4 2 16 8 W
14.08.2018 00:00:00 8,6 1,3 4 2 16 9 SSE
13.08.2018 23:00:00 8,9 1,8 10 5 18 10 NE
13.08.2018 22:00:00 9,3 2,4 11 6 19 10 NNE
13.08.2018 21:00:00 9,9 2,7 13 7 23 13 NE
13.08.2018 20:00:00 11,6 1,2 13 7 25 13 NNW
13.08.2018 19:00:00 12,4 1,4 16 9 28 15 NW
13.08.2018 18:00:00 12,6 2,2 16 9 28 15 NW
13.08.2018 17:00:00 13,6 1,6 15 8 33 18 WNW
13.08.2018 16:00:00 12,1 1,9 17 9 33 18 NNW
13.08.2018 15:00:00 11,2 1,7 16 9 35 19 NNW
13.08.2018 14:00:00 10,7 2,5 17 9 39 21 NW
13.08.2018 13:00:00 10,8 3,3 16 9 39 21 WNW
13.08.2018 12:00:00 10,1 2,4 22 12 37 20 NW
13.08.2018 11:00:00 8,8 2,8 23 13 36 20 NW
13.08.2018 10:00:00 8,7 3,5 13 7 41 22 WNW
13.08.2018 09:00:00 7,2 3,1 22 12 41 22 WNW
13.08.2018 08:00:00 5,7 2,5 18 10 33 18 W
13.08.2018 07:00:00 5,1 2,1 22 12 32 18 WNW
13.08.2018 06:00:00 4,4 1,8 19 10 38 21 WNW
13.08.2018 05:00:00 4,8 2,0 27 14 38 21 NW
13.08.2018 04:00:00 4,7 1,9 24 13 44 24 NW
13.08.2018 03:00:00 5,0 1,8 23 12 44 24 WNW
13.08.2018 02:00:00 5,1 2,1 28 15 44 24 NW
13.08.2018 01:00:00 5,1 2,5 28 15 38 21 NW
13.08.2018 00:00:00 5,1 2,3 22 12 37 20 NW
12.08.2018 23:00:00 5,6 2,8 31 17 37 20 NNW
12.08.2018 22:00:00 6,0 2,6 21 11 44 24 NNW
12.08.2018 21:00:00 7,1 2,8 26 14 44 24 NNW
12.08.2018 20:00:00 7,8 3,1 34 18 44 24 NNW
12.08.2018 19:00:00 8,8 4,2 23 12 41 22 NNW
12.08.2018 18:00:00 10,2 2,8 22 12 38 20 NW
12.08.2018 17:00:00 10,0 2,6 17 9 42 23 NNW
12.08.2018 16:00:00 10,1 1,2 29 16 42 23 N
12.08.2018 15:00:00 9,5 2,1 25 13 34 18 N
12.08.2018 14:00:00 9,2 2,5 23 12 34 18 N
12.08.2018 13:00:00 8,7 2,3 14 8 24 13 NNW
12.08.2018 12:00:00 7,7 5,0 15 8 29 15 NW
12.08.2018 11:00:00 6,2 3,0 16 8 35 19 N
12.08.2018 10:00:00 5,4 2,6 22 12 35 19 N
12.08.2018 09:00:00 5,3 2,3 22 12 - - N
12.08.2018 08:00:00 5,2 2,4 23 13 37 20 N
12.08.2018 07:00:00 5,2 3,1 27 14 37 20 NNE
12.08.2018 06:00:00 5,2 3,2 18 10 37 20 NNE
12.08.2018 05:00:00 5,4 3,4 28 15 44 24 NNE
12.08.2018 04:00:00 5,7 3,4 29 16 48 26 NNE
12.08.2018 03:00:00 6,6 3,9 30 16 45 24 NE
12.08.2018 02:00:00 6,7 5,5 21 11 34 18 NE

tt = Température de l'air
td = dewpoint
ff = Vitesse du vent
fx = gusts
dd = Direction du vent

stations d'obs. à proximité